sensor_id;sensor_type;location;lat;lon;timestamp;pressure;altitude;pressure_sealevel;temperature;humidity
63115;BME280;49208;50.874;6.466;2022-10-16T05:03:34;100143.38;;;10.67;100.00
63115;BME280;49208;50.874;6.466;2022-10-16T05:06:00;100146.22;;;10.63;100.00
63115;BME280;49208;50.874;6.466;2022-10-16T05:08:25;100152.59;;;10.59;100.00
63115;BME280;49208;50.874;6.466;2022-10-16T05:10:50;100151.91;;;10.54;100.00
63115;BME280;49208;50.874;6.466;2022-10-16T05:13:16;100150.28;;;10.49;100.00
63115;BME280;49208;50.874;6.466;2022-10-16T05:15:41;100149.56;;;10.46;100.00
63115;BME280;49208;50.874;6.466;2022-10-16T05:18:08;100163.13;;;10.40;100.00
63115;BME280;49208;50.874;6.466;2022-10-16T05:20:33;100168.59;;;10.35;100.00
63115;BME280;49208;50.874;6.466;2022-10-16T05:22:59;100166.06;;;10.32;100.00
63115;BME280;49208;50.874;6.466;2022-10-16T05:25:24;100158.16;;;10.29;100.00
63115;BME280;49208;50.874;6.466;2022-10-16T05:27:50;100170.66;;;10.27;100.00
63115;BME280;49208;50.874;6.466;2022-10-16T05:30:16;100178.63;;;10.27;100.00
63115;BME280;49208;50.874;6.466;2022-10-16T05:32:46;100170.72;;;10.25;100.00
63115;BME280;49208;50.874;6.466;2022-10-16T05:35:12;100170.72;;;10.25;100.00
63115;BME280;49208;50.874;6.466;2022-10-16T05:37:37;100171.59;;;10.26;100.00
63115;BME280;49208;50.874;6.466;2022-10-16T05:40:03;100162.75;;;10.25;100.00
63115;BME280;49208;50.874;6.466;2022-10-16T05:42:30;100170.78;;;10.24;100.00
63115;BME280;49208;50.874;6.466;2022-10-16T05:44:55;100178.75;;;10.24;100.00
63115;BME280;49208;50.874;6.466;2022-10-16T05:47:20;100187.66;;;10.23;100.00
63115;BME280;49208;50.874;6.466;2022-10-16T05:49:46;100182.34;;;10.23;100.00
63115;BME280;49208;50.874;6.466;2022-10-16T05:52:11;100195.63;;;10.23;100.00
63115;BME280;49208;50.874;6.466;2022-10-16T05:54:37;100188.53;;;10.23;100.00
63115;BME280;49208;50.874;6.466;2022-10-16T05:57:02;100196.53;;;10.23;100.00
63115;BME280;49208;50.874;6.466;2022-10-16T05:59:27;100210.78;;;10.21;100.00
63115;BME280;49208;50.874;6.466;2022-10-16T06:01:53;100209.88;;;10.22;100.00
63115;BME280;49208;50.874;6.466;2022-10-16T06:04:18;100218.72;;;10.22;100.00
63115;BME280;49208;50.874;6.466;2022-10-16T06:06:44;100220.47;;;10.23;100.00
63115;BME280;49208;50.874;6.466;2022-10-16T06:09:09;100216.75;;;10.27;100.00
63115;BME280;49208;50.874;6.466;2022-10-16T06:11:36;100215.75;;;10.31;100.00
63115;BME280;49208;50.874;6.466;2022-10-16T06:14:02;100220.09;;;10.34;100.00
63115;BME280;49208;50.874;6.466;2022-10-16T06:16:31;100229.63;;;10.40;100.00
63115;BME280;49208;50.874;6.466;2022-10-16T06:18:56;100233.03;;;10.43;100.00
63115;BME280;49208;50.874;6.466;2022-10-16T06:21:25;100238.09;;;10.49;100.00
63115;BME280;49208;50.874;6.466;2022-10-16T06:23:51;100241.38;;;10.56;100.00
63115;BME280;49208;50.874;6.466;2022-10-16T06:26:18;100245.63;;;10.62;100.00
63115;BME280;49208;50.874;6.466;2022-10-16T06:28:44;100246.19;;;10.70;100.00
63115;BME280;49208;50.874;6.466;2022-10-16T06:31:11;100257.34;;;10.80;100.00
63115;BME280;49208;50.874;6.466;2022-10-16T06:33:37;100261.38;;;10.90;100.00
63115;BME280;49208;50.874;6.466;2022-10-16T06:36:07;100266.47;;;10.96;100.00
63115;BME280;49208;50.874;6.466;2022-10-16T06:38:33;100267.03;;;11.04;100.00
63115;BME280;49208;50.874;6.466;2022-10-16T06:40:59;100255.97;;;11.13;100.00
63115;BME280;49208;50.874;6.466;2022-10-16T06:43:24;100261.88;;;11.22;100.00
63115;BME280;49208;50.874;6.466;2022-10-16T06:45:54;100263.41;;;11.27;100.00
63115;BME280;49208;50.874;6.466;2022-10-16T06:48:20;100264.88;;;11.35;100.00
63115;BME280;49208;50.874;6.466;2022-10-16T06:51:01;100280.56;;;11.42;100.00
63115;BME280;49208;50.874;6.466;2022-10-16T06:53:29;100278.44;;;11.50;100.00
63115;BME280;49208;50.874;6.466;2022-10-16T06:55:55;100289.59;;;11.60;100.00
63115;BME280;49208;50.874;6.466;2022-10-16T06:58:21;100275.84;;;11.69;100.00
63115;BME280;49208;50.874;6.466;2022-10-16T07:00:46;100278.19;;;11.77;100.00
63115;BME280;49208;50.874;6.466;2022-10-16T07:03:12;100290.22;;;11.87;100.00
63115;BME280;49208;50.874;6.466;2022-10-16T07:05:41;100292.44;;;11.98;100.00
63115;BME280;49208;50.874;6.466;2022-10-16T07:08:07;100304.50;;;12.07;100.00
63115;BME280;49208;50.874;6.466;2022-10-16T07:10:33;100302.22;;;12.18;100.00
63115;BME280;49208;50.874;6.466;2022-10-16T07:12:58;100316.97;;;12.27;100.00
63115;BME280;49208;50.874;6.466;2022-10-16T07:15:25;100324.53;;;12.36;100.00
63115;BME280;49208;50.874;6.466;2022-10-16T07:17:50;100325.22;;;12.41;100.00
63115;BME280;49208;50.874;6.466;2022-10-16T07:20:15;100320.53;;;12.46;100.00
63115;BME280;49208;50.874;6.466;2022-10-16T07:22:41;100323.94;;;12.50;100.00
63115;BME280;49208;50.874;6.466;2022-10-16T07:25:07;100316.88;;;12.68;100.00
63115;BME280;49208;50.874;6.466;2022-10-16T07:27:32;100325.53;;;13.30;100.00
63115;BME280;49208;50.874;6.466;2022-10-16T07:29:58;100316.16;;;14.10;100.00
63115;BME280;49208;50.874;6.466;2022-10-16T07:32:23;100325.81;;;14.30;98.80
63115;BME280;49208;50.874;6.466;2022-10-16T07:34:50;100329.91;;;14.37;97.13
63115;BME280;49208;50.874;6.466;2022-10-16T07:37:16;100337.44;;;14.46;95.91
63115;BME280;49208;50.874;6.466;2022-10-16T07:39:41;100343.91;;;14.42;95.08
63115;BME280;49208;50.874;6.466;2022-10-16T07:42:06;100349.69;;;14.50;94.04
63115;BME280;49208;50.874;6.466;2022-10-16T07:44:32;100350.03;;;14.44;93.55
63115;BME280;49208;50.874;6.466;2022-10-16T07:46:58;100354.13;;;14.51;94.86
63115;BME280;49208;50.874;6.466;2022-10-16T07:49:24;100360.47;;;15.47;93.27
63115;BME280;49208;50.874;6.466;2022-10-16T07:51:49;100352.69;;;17.48;85.34
63115;BME280;49208;50.874;6.466;2022-10-16T07:54:15;100362.53;;;19.67;76.58
63115;BME280;49208;50.874;6.466;2022-10-16T07:56:40;100353.97;;;21.46;66.92
63115;BME280;49208;50.874;6.466;2022-10-16T07:59:06;100360.63;;;22.90;63.28
63115;BME280;49208;50.874;6.466;2022-10-16T08:01:31;100362.06;;;24.14;59.25
63115;BME280;49208;50.874;6.466;2022-10-16T08:03:56;100366.56;;;25.37;54.48
63115;BME280;49208;50.874;6.466;2022-10-16T08:06:22;100364.06;;;26.26;49.68
63115;BME280;49208;50.874;6.466;2022-10-16T08:08:48;100363.00;;;26.97;45.88
63115;BME280;49208;50.874;6.466;2022-10-16T08:11:13;100368.59;;;27.21;48.23
63115;BME280;49208;50.874;6.466;2022-10-16T08:13:40;100364.97;;;27.13;42.61
63115;BME280;49208;50.874;6.466;2022-10-16T08:16:06;100367.00;;;27.11;45.76
63115;BME280;49208;50.874;6.466;2022-10-16T08:18:34;100371.38;;;27.30;43.81
63115;BME280;49208;50.874;6.466;2022-10-16T08:21:00;100370.84;;;27.26;44.54
63115;BME280;49208;50.874;6.466;2022-10-16T08:23:27;100380.84;;;27.44;44.93
63115;BME280;49208;50.874;6.466;2022-10-16T08:26:02;100383.88;;;27.91;42.72
63115;BME280;49208;50.874;6.466;2022-10-16T08:28:28;100396.38;;;28.10;41.80
63115;BME280;49208;50.874;6.466;2022-10-16T08:30:54;100393.13;;;28.23;43.02
63115;BME280;49208;50.874;6.466;2022-10-16T08:33:19;100398.25;;;28.42;38.95
63115;BME280;49208;50.874;6.466;2022-10-16T08:35:53;100394.16;;;28.30;41.77
63115;BME280;49208;50.874;6.466;2022-10-16T08:38:20;100401.00;;;28.26;41.94
63115;BME280;49208;50.874;6.466;2022-10-16T08:40:45;100405.03;;;27.81;39.75
63115;BME280;49208;50.874;6.466;2022-10-16T08:43:34;100408.41;;;27.24;42.56
63115;BME280;49208;50.874;6.466;2022-10-16T08:48:46;100416.47;;;26.11;42.77
63115;BME280;49208;50.874;6.466;2022-10-16T08:51:18;100417.28;;;25.48;46.94
63115;BME280;49208;50.874;6.466;2022-10-16T08:53:57;100418.84;;;24.66;48.41
63115;BME280;49208;50.874;6.466;2022-10-16T08:56:24;100423.59;;;23.96;51.42
63115;BME280;49208;50.874;6.466;2022-10-16T08:58:52;100417.75;;;23.50;53.23
63115;BME280;49208;50.874;6.466;2022-10-16T09:01:18;100423.63;;;23.15;55.23
63115;BME280;49208;50.874;6.466;2022-10-16T09:17:30;100426.72;;;21.05;61.88
63115;BME280;49208;50.874;6.466;2022-10-16T09:22:36;100429.19;;;20.97;61.22
63115;BME280;49208;50.874;6.466;2022-10-16T09:25:11;100434.94;;;20.81;62.21
63115;BME280;49208;50.874;6.466;2022-10-16T09:27:37;100427.94;;;20.67;61.20
63115;BME280;49208;50.874;6.466;2022-10-16T09:30:32;100429.81;;;20.54;61.27
63115;BME280;49208;50.874;6.466;2022-10-16T09:32:58;100428.59;;;20.47;58.89
63115;BME280;49208;50.874;6.466;2022-10-16T09:35:46;100439.88;;;20.52;63.43
63115;BME280;49208;50.874;6.466;2022-10-16T09:38:25;100440.41;;;20.57;63.92
63115;BME280;49208;50.874;6.466;2022-10-16T09:40:52;100435.84;;;20.57;60.41
63115;BME280;49208;50.874;6.466;2022-10-16T09:43:25;100440.19;;;20.60;63.58
63115;BME280;49208;50.874;6.466;2022-10-16T09:46:01;100434.41;;;20.65;61.96
63115;BME280;49208;50.874;6.466;2022-10-16T09:48:39;100431.59;;;20.66;58.56
63115;BME280;49208;50.874;6.466;2022-10-16T09:51:21;100440.31;;;20.58;60.45
63115;BME280;49208;50.874;6.466;2022-10-16T09:53:48;100434.19;;;20.68;62.01
63115;BME280;49208;50.874;6.466;2022-10-16T09:56:31;100438.38;;;20.83;62.90
63115;BME280;49208;50.874;6.466;2022-10-16T09:59:10;100429.19;;;21.08;64.37
63115;BME280;49208;50.874;6.466;2022-10-16T10:01:39;100431.63;;;21.23;60.47
63115;BME280;49208;50.874;6.466;2022-10-16T10:04:06;100436.56;;;21.29;58.74
63115;BME280;49208;50.874;6.466;2022-10-16T10:06:36;100436.94;;;21.35;58.83
63115;BME280;49208;50.874;6.466;2022-10-16T10:11:52;100424.25;;;20.91;56.26
63115;BME280;49208;50.874;6.466;2022-10-16T10:14:20;100421.59;;;20.55;57.38
63115;BME280;49208;50.874;6.466;2022-10-16T10:16:46;100421.25;;;20.25;58.47
63115;BME280;49208;50.874;6.466;2022-10-16T10:19:22;100433.31;;;19.96;58.76
63115;BME280;49208;50.874;6.466;2022-10-16T10:21:50;100437.50;;;19.76;60.16
63115;BME280;49208;50.874;6.466;2022-10-16T10:24:17;100455.13;;;19.56;62.25
63115;BME280;49208;50.874;6.466;2022-10-16T10:27:19;100451.56;;;19.56;62.09
63115;BME280;49208;50.874;6.466;2022-10-16T10:32:38;100446.56;;;19.75;61.96
63115;BME280;49208;50.874;6.466;2022-10-16T10:35:39;100446.09;;;19.82;63.94
63115;BME280;49208;50.874;6.466;2022-10-16T10:38:20;100447.19;;;19.79;64.92
63115;BME280;49208;50.874;6.466;2022-10-16T10:46:05;100439.97;;;19.67;64.18
63115;BME280;49208;50.874;6.466;2022-10-16T10:54:20;100452.66;;;19.53;65.88
63115;BME280;49208;50.874;6.466;2022-10-16T11:02:13;100454.22;;;19.06;66.21
63115;BME280;49208;50.874;6.466;2022-10-16T11:07:45;100464.47;;;18.88;67.91
63115;BME280;49208;50.874;6.466;2022-10-16T11:10:20;100452.97;;;18.99;67.25
63115;BME280;49208;50.874;6.466;2022-10-16T11:12:52;100461.47;;;19.06;67.09
63115;BME280;49208;50.874;6.466;2022-10-16T11:17:53;100458.97;;;19.28;65.53
63115;BME280;49208;50.874;6.466;2022-10-16T11:20:23;100465.09;;;19.43;64.45
63115;BME280;49208;50.874;6.466;2022-10-16T11:22:54;100465.00;;;19.45;63.88
63115;BME280;49208;50.874;6.466;2022-10-16T11:25:24;100467.38;;;19.36;62.92
63115;BME280;49208;50.874;6.466;2022-10-16T11:30:28;100473.84;;;19.34;65.13
63115;BME280;49208;50.874;6.466;2022-10-16T11:35:43;100473.31;;;19.29;61.25
63115;BME280;49208;50.874;6.466;2022-10-16T11:38:25;100469.66;;;19.17;61.77
63115;BME280;49208;50.874;6.466;2022-10-16T11:40:53;100477.31;;;19.10;62.20
63115;BME280;49208;50.874;6.466;2022-10-16T11:43:35;100478.09;;;19.12;63.03
63115;BME280;49208;50.874;6.466;2022-10-16T11:46:09;100466.66;;;19.22;61.45
63115;BME280;49208;50.874;6.466;2022-10-16T11:48:55;100468.25;;;19.24;60.02
63115;BME280;49208;50.874;6.466;2022-10-16T11:51:36;100472.34;;;19.17;61.86
63115;BME280;49208;50.874;6.466;2022-10-16T11:57:15;100473.97;;;19.07;63.86
63115;BME280;49208;50.874;6.466;2022-10-16T12:05:18;100465.66;;;19.23;61.63
63115;BME280;49208;50.874;6.466;2022-10-16T12:10:23;100473.44;;;19.27;62.93
63115;BME280;49208;50.874;6.466;2022-10-16T12:12:49;100470.81;;;19.26;62.50
63115;BME280;49208;50.874;6.466;2022-10-16T12:15:25;100470.31;;;19.21;62.49
63115;BME280;49208;50.874;6.466;2022-10-16T12:17:51;100458.66;;;19.20;63.85
63115;BME280;49208;50.874;6.466;2022-10-16T12:20:21;100467.59;;;19.21;64.13
63115;BME280;49208;50.874;6.466;2022-10-16T12:22:50;100464.72;;;19.24;63.36
63115;BME280;49208;50.874;6.466;2022-10-16T12:25:33;100465.31;;;19.27;64.91
63115;BME280;49208;50.874;6.466;2022-10-16T12:28:00;100458.84;;;19.30;63.42
63115;BME280;49208;50.874;6.466;2022-10-16T12:30:29;100466.94;;;19.30;62.39
63115;BME280;49208;50.874;6.466;2022-10-16T12:32:57;100464.47;;;19.27;62.60
63115;BME280;49208;50.874;6.466;2022-10-16T12:35:32;100469.34;;;19.22;63.49
63115;BME280;49208;50.874;6.466;2022-10-16T12:38:16;100466.19;;;19.15;62.82
63115;BME280;49208;50.874;6.466;2022-10-16T12:40:43;100462.13;;;19.09;61.88
63115;BME280;49208;50.874;6.466;2022-10-16T12:43:26;100465.47;;;19.00;62.94
63115;BME280;49208;50.874;6.466;2022-10-16T12:48:31;100462.34;;;18.81;63.65
63115;BME280;49208;50.874;6.466;2022-10-16T12:50:56;100465.31;;;18.76;63.71
63115;BME280;49208;50.874;6.466;2022-10-16T12:53:26;100460.22;;;18.71;64.76
63115;BME280;49208;50.874;6.466;2022-10-16T12:55:53;100459.69;;;18.66;63.92
63115;BME280;49208;50.874;6.466;2022-10-16T12:58:28;100457.34;;;18.62;63.67
63115;BME280;49208;50.874;6.466;2022-10-16T13:01:29;100447.91;;;18.54;65.34
63115;BME280;49208;50.874;6.466;2022-10-16T13:06:47;100451.84;;;18.23;63.78
63115;BME280;49208;50.874;6.466;2022-10-16T13:09:32;100467.75;;;18.13;63.46
63115;BME280;49208;50.874;6.466;2022-10-16T13:15:44;100471.16;;;18.30;63.62
63115;BME280;49208;50.874;6.466;2022-10-16T13:26:18;100475.47;;;18.72;60.60
63115;BME280;49208;50.874;6.466;2022-10-16T13:28:48;100475.88;;;18.66;60.55
63115;BME280;49208;50.874;6.466;2022-10-16T13:31:20;100467.13;;;18.63;60.67
63115;BME280;49208;50.874;6.466;2022-10-16T13:33:50;100472.19;;;18.54;61.09
63115;BME280;49208;50.874;6.466;2022-10-16T13:36:22;100467.44;;;18.45;61.61
63115;BME280;49208;50.874;6.466;2022-10-16T13:39:00;100467.09;;;18.37;61.52
63115;BME280;49208;50.874;6.466;2022-10-16T13:41:26;100467.72;;;18.41;61.87
63115;BME280;49208;50.874;6.466;2022-10-16T13:43:52;100468.81;;;18.51;62.45
63115;BME280;49208;50.874;6.466;2022-10-16T13:46:22;100469.63;;;18.66;61.84
63115;BME280;49208;50.874;6.466;2022-10-16T13:51:29;100458.94;;;18.64;62.23
63115;BME280;49208;50.874;6.466;2022-10-16T13:53:55;100463.69;;;18.61;62.06
63115;BME280;49208;50.874;6.466;2022-10-16T13:56:25;100464.75;;;18.58;62.69
63115;BME280;49208;50.874;6.466;2022-10-16T13:59:03;100484.38;;;18.60;62.32
63115;BME280;49208;50.874;6.466;2022-10-16T14:01:33;100475.97;;;18.65;61.82
63115;BME280;49208;50.874;6.466;2022-10-16T14:04:06;100469.06;;;18.61;61.22
63115;BME280;49208;50.874;6.466;2022-10-16T14:06:33;100474.69;;;18.57;61.92
63115;BME280;49208;50.874;6.466;2022-10-16T14:09:02;100463.44;;;18.51;61.98
63115;BME280;49208;50.874;6.466;2022-10-16T14:11:30;100463.00;;;18.44;62.39
63115;BME280;49208;50.874;6.466;2022-10-16T14:13:55;100461.47;;;18.40;63.05
63115;BME280;49208;50.874;6.466;2022-10-16T14:16:24;100462.78;;;18.34;62.73
63115;BME280;49208;50.874;6.466;2022-10-16T14:21:21;100450.78;;;18.26;63.57
63115;BME280;49208;50.874;6.466;2022-10-16T14:23:46;100450.13;;;18.22;64.84
63115;BME280;49208;50.874;6.466;2022-10-16T14:26:13;100450.41;;;18.17;63.99
63115;BME280;49208;50.874;6.466;2022-10-16T14:28:40;100454.19;;;18.15;64.77
63115;BME280;49208;50.874;6.466;2022-10-16T14:31:26;100464.97;;;18.15;65.27
63115;BME280;49208;50.874;6.466;2022-10-16T14:33:52;100472.19;;;18.14;65.63
63115;BME280;49208;50.874;6.466;2022-10-16T14:36:17;100472.63;;;18.21;65.12
63115;BME280;49208;50.874;6.466;2022-10-16T14:38:52;100474.06;;;18.27;64.22
63115;BME280;49208;50.874;6.466;2022-10-16T14:41:21;100480.97;;;18.31;63.82
63115;BME280;49208;50.874;6.466;2022-10-16T14:43:52;100483.44;;;18.34;64.09
63115;BME280;49208;50.874;6.466;2022-10-16T14:46:20;100472.69;;;18.34;63.76
63115;BME280;49208;50.874;6.466;2022-10-16T14:48:48;100469.13;;;18.33;65.40
63115;BME280;49208;50.874;6.466;2022-10-16T14:51:19;100477.53;;;18.29;66.56
63115;BME280;49208;50.874;6.466;2022-10-16T14:53:45;100478.69;;;18.25;65.69
63115;BME280;49208;50.874;6.466;2022-10-16T14:56:22;100479.78;;;18.22;66.30
63115;BME280;49208;50.874;6.466;2022-10-16T14:58:49;100470.94;;;18.20;65.37
63115;BME280;49208;50.874;6.466;2022-10-16T15:01:15;100470.16;;;18.18;65.65
63115;BME280;49208;50.874;6.466;2022-10-16T15:03:41;100471.13;;;18.17;65.79
63115;BME280;49208;50.874;6.466;2022-10-16T15:06:15;100474.03;;;18.14;65.56
63115;BME280;49208;50.874;6.466;2022-10-16T15:08:41;100478.00;;;18.08;66.14
63115;BME280;49208;50.874;6.466;2022-10-16T15:11:17;100482.94;;;18.02;67.17
63115;BME280;49208;50.874;6.466;2022-10-16T15:13:43;100481.72;;;17.93;68.22
63115;BME280;49208;50.874;6.466;2022-10-16T15:16:12;100479.50;;;17.85;67.99
63115;BME280;49208;50.874;6.466;2022-10-16T15:18:38;100470.19;;;17.76;67.76
63115;BME280;49208;50.874;6.466;2022-10-16T15:21:03;100472.38;;;17.70;67.43
63115;BME280;49208;50.874;6.466;2022-10-16T15:23:28;100470.09;;;17.64;67.80
63115;BME280;49208;50.874;6.466;2022-10-16T15:25:55;100467.91;;;17.56;69.21
63115;BME280;49208;50.874;6.466;2022-10-16T15:28:22;100461.19;;;17.49;70.27
63115;BME280;49208;50.874;6.466;2022-10-16T15:30:52;100455.41;;;17.41;69.57
63115;BME280;49208;50.874;6.466;2022-10-16T15:33:20;100455.81;;;17.34;71.54
63115;BME280;49208;50.874;6.466;2022-10-16T15:35:48;100459.78;;;17.29;71.90
63115;BME280;49208;50.874;6.466;2022-10-16T15:38:14;100453.81;;;17.24;71.54
63115;BME280;49208;50.874;6.466;2022-10-16T15:40:41;100451.41;;;17.19;72.51
63115;BME280;49208;50.874;6.466;2022-10-16T15:43:07;100455.25;;;17.15;73.87
63115;BME280;49208;50.874;6.466;2022-10-16T15:45:33;100458.25;;;17.10;72.29
63115;BME280;49208;50.874;6.466;2022-10-16T15:47:58;100456.59;;;17.08;72.70
63115;BME280;49208;50.874;6.466;2022-10-16T15:50:24;100446.91;;;17.05;72.53
63115;BME280;49208;50.874;6.466;2022-10-16T15:52:50;100448.06;;;17.01;72.92
63115;BME280;49208;50.874;6.466;2022-10-16T15:55:16;100448.34;;;16.96;72.21
63115;BME280;49208;50.874;6.466;2022-10-16T15:57:42;100452.19;;;16.92;73.35
63115;BME280;49208;50.874;6.466;2022-10-16T16:00:13;100449.78;;;16.88;74.31
63115;BME280;49208;50.874;6.466;2022-10-16T16:02:40;100446.63;;;16.81;74.86
63115;BME280;49208;50.874;6.466;2022-10-16T16:05:07;100441.66;;;16.73;74.72
63115;BME280;49208;50.874;6.466;2022-10-16T16:07:34;100452.72;;;16.69;74.78
63115;BME280;49208;50.874;6.466;2022-10-16T16:10:00;100445.78;;;16.65;75.15
63115;BME280;49208;50.874;6.466;2022-10-16T16:12:25;100451.44;;;16.60;75.52
63115;BME280;49208;50.874;6.466;2022-10-16T16:14:50;100440.19;;;16.53;76.45
63115;BME280;49208;50.874;6.466;2022-10-16T16:17:16;100447.69;;;16.48;76.84
63115;BME280;49208;50.874;6.466;2022-10-16T16:19:42;100440.06;;;16.41;78.00
63115;BME280;49208;50.874;6.466;2022-10-16T16:22:07;100453.00;;;16.34;78.86
63115;BME280;49208;50.874;6.466;2022-10-16T16:24:32;100448.00;;;16.28;78.91
63115;BME280;49208;50.874;6.466;2022-10-16T16:26:58;100464.28;;;16.25;79.20
63115;BME280;49208;50.874;6.466;2022-10-16T16:29:23;100463.69;;;16.20;80.02
63115;BME280;49208;50.874;6.466;2022-10-16T16:31:49;100458.59;;;16.15;80.10
63115;BME280;49208;50.874;6.466;2022-10-16T16:34:14;100456.97;;;16.12;80.62
63115;BME280;49208;50.874;6.466;2022-10-16T16:36:40;100457.13;;;16.09;80.98
63115;BME280;49208;50.874;6.466;2022-10-16T16:39:06;100456.34;;;16.07;81.57
63115;BME280;49208;50.874;6.466;2022-10-16T16:41:31;100456.56;;;16.04;81.33
63115;BME280;49208;50.874;6.466;2022-10-16T16:44:05;100452.97;;;16.04;81.96
63115;BME280;49208;50.874;6.466;2022-10-16T16:46:32;100453.88;;;16.04;81.94
63115;BME280;49208;50.874;6.466;2022-10-16T16:48:59;100454.66;;;16.06;82.27
63115;BME280;49208;50.874;6.466;2022-10-16T16:51:24;100460.09;;;16.05;82.70
63115;BME280;49208;50.874;6.466;2022-10-16T16:53:52;100468.22;;;16.03;83.11
63115;BME280;49208;50.874;6.466;2022-10-16T16:56:17;100471.00;;;16.02;83.47
63115;BME280;49208;50.874;6.466;2022-10-16T16:58:50;100478.28;;;16.00;84.20
63115;BME280;49208;50.874;6.466;2022-10-16T17:01:17;100478.19;;;16.01;84.36
63115;BME280;49208;50.874;6.466;2022-10-16T17:03:44;100484.41;;;16.02;84.74
63115;BME280;49208;50.874;6.466;2022-10-16T17:06:11;100489.63;;;16.05;85.05
63115;BME280;49208;50.874;6.466;2022-10-16T17:08:37;100488.56;;;16.07;85.22
63115;BME280;49208;50.874;6.466;2022-10-16T17:11:03;100485.72;;;16.10;85.27
63115;BME280;49208;50.874;6.466;2022-10-16T17:13:31;100481.03;;;16.14;85.18
63115;BME280;49208;50.874;6.466;2022-10-16T17:15:56;100480.00;;;16.16;85.31
63115;BME280;49208;50.874;6.466;2022-10-16T17:18:23;100475.28;;;16.20;85.60
63115;BME280;49208;50.874;6.466;2022-10-16T17:20:50;100478.84;;;16.21;85.55
63115;BME280;49208;50.874;6.466;2022-10-16T17:23:17;100478.84;;;16.21;85.46
63115;BME280;49208;50.874;6.466;2022-10-16T17:25:43;100482.22;;;16.24;85.74
63115;BME280;49208;50.874;6.466;2022-10-16T17:28:10;100488.56;;;16.23;85.72
63115;BME280;49208;50.874;6.466;2022-10-16T17:30:39;100498.34;;;16.24;85.59
63115;BME280;49208;50.874;6.466;2022-10-16T17:33:06;100503.63;;;16.26;85.81
63115;BME280;49208;50.874;6.466;2022-10-16T17:35:44;100503.78;;;16.23;85.91
63115;BME280;49208;50.874;6.466;2022-10-16T17:38:10;100498.63;;;16.20;86.12
63115;BME280;49208;50.874;6.466;2022-10-16T17:40:36;100500.53;;;16.17;86.38
63115;BME280;49208;50.874;6.466;2022-10-16T17:43:02;100499.59;;;16.19;86.66
63115;BME280;49208;50.874;6.466;2022-10-16T17:45:28;100499.75;;;16.15;86.79
63115;BME280;49208;50.874;6.466;2022-10-16T17:47:54;100497.13;;;16.14;87.25
63115;BME280;49208;50.874;6.466;2022-10-16T17:50:19;100493.69;;;16.12;87.63
63115;BME280;49208;50.874;6.466;2022-10-16T17:52:45;100497.41;;;16.09;87.84
63115;BME280;49208;50.874;6.466;2022-10-16T17:55:10;100503.75;;;16.08;88.29
63115;BME280;49208;50.874;6.466;2022-10-16T17:57:36;100505.38;;;16.11;88.95
63115;BME280;49208;50.874;6.466;2022-10-16T18:00:03;100496.13;;;16.16;88.82
63115;BME280;49208;50.874;6.466;2022-10-16T18:02:29;100490.63;;;16.18;88.63
63115;BME280;49208;50.874;6.466;2022-10-16T18:04:54;100493.44;;;16.16;88.76
63115;BME280;49208;50.874;6.466;2022-10-16T18:07:21;100491.53;;;16.19;89.04
63115;BME280;49208;50.874;6.466;2022-10-16T18:09:46;100500.44;;;16.19;89.11
63115;BME280;49208;50.874;6.466;2022-10-16T18:12:12;100499.59;;;16.19;89.58
63115;BME280;49208;50.874;6.466;2022-10-16T18:14:37;100505.91;;;16.17;89.29
63115;BME280;49208;50.874;6.466;2022-10-16T18:17:03;100501.88;;;16.25;89.32
63115;BME280;49208;50.874;6.466;2022-10-16T18:19:28;100499.13;;;16.26;89.41
63115;BME280;49208;50.874;6.466;2022-10-16T18:21:54;100502.50;;;16.30;89.40
63115;BME280;49208;50.874;6.466;2022-10-16T18:24:21;100516.63;;;16.33;89.36
63115;BME280;49208;50.874;6.466;2022-10-16T18:26:50;100509.34;;;16.35;89.36
63115;BME280;49208;50.874;6.466;2022-10-16T18:29:16;100513.66;;;16.38;89.46
63115;BME280;49208;50.874;6.466;2022-10-16T18:31:41;100518.25;;;16.36;89.53
63115;BME280;49208;50.874;6.466;2022-10-16T18:34:08;100524.47;;;16.36;89.46
63115;BME280;49208;50.874;6.466;2022-10-16T18:36:34;100530.81;;;16.35;89.57
63115;BME280;49208;50.874;6.466;2022-10-16T18:39:02;100531.84;;;16.33;89.58
63115;BME280;49208;50.874;6.466;2022-10-16T18:41:28;100538.19;;;16.32;89.78
63115;BME280;49208;50.874;6.466;2022-10-16T18:43:57;100539.91;;;16.33;90.00
63115;BME280;49208;50.874;6.466;2022-10-16T18:46:24;100540.03;;;16.31;89.75
63115;BME280;49208;50.874;6.466;2022-10-16T18:48:50;100537.41;;;16.30;90.13
63115;BME280;49208;50.874;6.466;2022-10-16T18:53:45;100552.06;;;16.24;90.38
63115;BME280;49208;50.874;6.466;2022-10-16T18:56:12;100550.50;;;16.20;90.74
63115;BME280;49208;50.874;6.466;2022-10-16T18:58:42;100555.19;;;16.16;90.77
63115;BME280;49208;50.874;6.466;2022-10-16T19:01:13;100560.72;;;16.13;91.18
63115;BME280;49208;50.874;6.466;2022-10-16T19:03:39;100558.31;;;16.09;91.14
63115;BME280;49208;50.874;6.466;2022-10-16T19:06:09;100555.97;;;16.03;91.51
63115;BME280;49208;50.874;6.466;2022-10-16T19:08:36;100558.03;;;15.98;91.96
63115;BME280;49208;50.874;6.466;2022-10-16T19:11:18;100562.81;;;15.92;92.21
63115;BME280;49208;50.874;6.466;2022-10-16T19:13:44;100562.13;;;15.89;92.36
63115;BME280;49208;50.874;6.466;2022-10-16T19:16:13;100564.09;;;15.85;92.69
63115;BME280;49208;50.874;6.466;2022-10-16T19:18:39;100566.88;;;15.84;93.20
63115;BME280;49208;50.874;6.466;2022-10-16T19:21:05;100569.72;;;15.81;93.79
63115;BME280;49208;50.874;6.466;2022-10-16T19:23:31;100576.22;;;15.76;93.76
63115;BME280;49208;50.874;6.466;2022-10-16T19:26:05;100577.41;;;15.71;94.33